createdAt,value
2023-01-25T00:02:11.821Z,14.30
2023-01-25T00:04:39.665Z,20.90
2023-01-25T00:07:07.573Z,15.70
2023-01-25T00:09:35.829Z,17.10
2023-01-25T00:12:06.038Z,14.20
2023-01-25T00:14:34.620Z,12.80
2023-01-25T00:17:02.466Z,11.00
2023-01-25T00:19:31.192Z,11.80
2023-01-25T00:21:59.162Z,10.10
2023-01-25T00:24:28.412Z,9.30
2023-01-25T00:26:56.431Z,10.80
2023-01-25T00:29:24.569Z,7.20
2023-01-25T00:31:56.306Z,14.00
2023-01-25T00:34:24.151Z,10.70
2023-01-25T00:36:57.053Z,11.30
2023-01-25T00:39:25.408Z,9.60
2023-01-25T00:41:53.469Z,14.70
2023-01-25T00:44:21.560Z,13.30
2023-01-25T00:46:51.379Z,16.80
2023-01-25T00:49:19.938Z,12.80
2023-01-25T00:51:48.346Z,14.40
2023-01-25T00:54:16.697Z,14.70
2023-01-25T00:56:45.728Z,15.40
2023-01-25T00:59:13.702Z,15.40
2023-01-25T01:01:41.729Z,12.50
2023-01-25T01:04:09.764Z,15.30
2023-01-25T01:06:38.891Z,12.20
2023-01-25T01:09:07.158Z,9.00
2023-01-25T01:11:36.854Z,11.50
2023-01-25T01:14:04.719Z,9.70
2023-01-25T01:16:32.853Z,12.90
2023-01-25T01:19:00.908Z,12.10
2023-01-25T01:21:29.023Z,17.30
2023-01-25T01:23:58.075Z,19.20
2023-01-25T01:26:25.881Z,16.20
2023-01-25T01:28:53.785Z,16.80
2023-01-25T01:31:22.655Z,21.00
2023-01-25T01:34:04.125Z,15.10
2023-01-25T01:36:32.577Z,13.00
2023-01-25T01:39:02.965Z,16.60
2023-01-25T01:41:31.566Z,18.10
2023-01-25T01:44:00.340Z,16.80
2023-01-25T01:48:08.378Z,15.30
2023-01-25T01:50:36.361Z,15.80
2023-01-25T01:53:04.534Z,12.00
2023-01-25T01:55:33.861Z,9.90
2023-01-25T01:58:03.464Z,9.90
2023-01-25T02:00:32.692Z,12.50
2023-01-25T02:03:02.440Z,14.50
2023-01-25T02:05:49.810Z,13.00
2023-01-25T02:08:18.052Z,12.80
2023-01-25T02:10:45.885Z,13.80
2023-01-25T02:13:14.277Z,14.00
2023-01-25T02:15:43.440Z,14.70
2023-01-25T02:18:11.298Z,14.60
2023-01-25T02:20:39.877Z,14.50
2023-01-25T02:23:13.898Z,11.30
2023-01-25T02:25:42.924Z,13.80
2023-01-25T02:28:18.639Z,12.40
2023-01-25T02:30:46.585Z,13.20
2023-01-25T02:33:14.695Z,14.00
2023-01-25T02:35:44.778Z,10.70
2023-01-25T02:38:13.576Z,8.60
2023-01-25T02:40:48.809Z,16.20
2023-01-25T02:43:16.953Z,14.50
2023-01-25T02:45:46.477Z,11.70
2023-01-25T02:48:14.256Z,9.80
2023-01-25T02:50:42.669Z,10.70
2023-01-25T02:53:12.343Z,11.30
2023-01-25T02:55:40.188Z,10.30
2023-01-25T02:58:08.780Z,8.30
2023-01-25T03:00:36.836Z,10.90
2023-01-25T03:03:04.699Z,12.10
2023-01-25T03:05:35.165Z,11.90
2023-01-25T03:08:03.842Z,13.80
2023-01-25T03:10:32.809Z,9.70
2023-01-25T03:13:00.748Z,10.80
2023-01-25T03:15:28.599Z,16.00
2023-01-25T03:17:56.924Z,8.90
2023-01-25T03:20:24.949Z,11.90
2023-01-25T03:22:53.186Z,11.20
2023-01-25T03:25:21.344Z,14.30
2023-01-25T03:27:56.386Z,12.00
2023-01-25T03:30:24.361Z,7.00
2023-01-25T03:32:53.024Z,8.50
2023-01-25T03:35:21.271Z,12.10
2023-01-25T03:37:49.505Z,9.60
2023-01-25T03:40:17.351Z,7.80
2023-01-25T03:42:50.843Z,10.80
2023-01-25T03:45:18.804Z,10.00
2023-01-25T03:47:46.659Z,10.50
2023-01-25T03:50:15.737Z,13.00
2023-01-25T03:52:47.349Z,14.50
2023-01-25T03:55:15.314Z,16.70
2023-01-25T03:57:49.188Z,13.50
2023-01-25T04:00:18.051Z,12.10
2023-01-25T04:02:48.176Z,9.90
2023-01-25T04:05:18.478Z,11.40
2023-01-25T04:07:46.954Z,9.40
2023-01-25T04:10:15.754Z,8.80
2023-01-25T04:12:45.968Z,12.20
2023-01-25T04:15:14.666Z,6.70
2023-01-25T04:17:42.941Z,8.50
2023-01-25T04:20:19.497Z,7.40
2023-01-25T04:22:47.389Z,9.10
2023-01-25T04:25:15.442Z,10.30
2023-01-25T04:27:49.752Z,9.10
2023-01-25T04:30:18.565Z,6.40
2023-01-25T04:32:46.883Z,11.40
2023-01-25T04:35:27.406Z,8.30
2023-01-25T04:37:56.069Z,10.10
2023-01-25T04:40:25.710Z,13.10
2023-01-25T04:42:53.617Z,9.60
2023-01-25T04:45:21.760Z,11.00
2023-01-25T04:47:50.313Z,14.00
2023-01-25T04:50:18.275Z,11.10
2023-01-25T04:52:46.587Z,9.20
2023-01-25T04:55:14.583Z,10.40
2023-01-25T04:57:44.985Z,11.60
2023-01-25T05:00:13.065Z,10.00
2023-01-25T05:02:41.728Z,7.30
2023-01-25T05:05:10.228Z,8.30
2023-01-25T05:07:38.453Z,6.90
2023-01-25T05:10:07.742Z,10.50
2023-01-25T05:12:38.092Z,8.70
2023-01-25T05:15:07.677Z,13.80
2023-01-25T05:17:36.289Z,10.50
2023-01-25T05:20:04.221Z,11.20
2023-01-25T05:22:32.129Z,11.60
2023-01-25T05:25:02.901Z,9.80
2023-01-25T05:27:33.201Z,9.60
2023-01-25T05:30:19.621Z,9.70
2023-01-25T05:32:58.404Z,10.80
2023-01-25T05:35:26.300Z,14.50
2023-01-25T05:37:56.419Z,14.10
2023-01-25T05:40:25.298Z,18.70
2023-01-25T05:42:58.080Z,14.30
2023-01-25T05:45:26.556Z,12.70
2023-01-25T05:47:58.580Z,11.80
2023-01-25T05:50:26.843Z,13.90
2023-01-25T05:53:04.357Z,8.90
2023-01-25T05:55:34.844Z,9.10
2023-01-25T05:58:05.316Z,10.10
2023-01-25T06:00:33.443Z,9.70
2023-01-25T06:03:02.390Z,10.30
2023-01-25T06:05:32.190Z,14.90
2023-01-25T06:08:00.325Z,11.60
2023-01-25T06:10:35.957Z,9.10
2023-01-25T06:13:04.873Z,7.70
2023-01-25T06:15:33.016Z,11.70
2023-01-25T06:18:19.933Z,10.10
2023-01-25T06:21:07.699Z,12.40
2023-01-25T06:23:38.732Z,13.30
2023-01-25T06:26:08.455Z,11.20
2023-01-25T06:28:36.807Z,12.30
2023-01-25T06:31:05.580Z,13.60
2023-01-25T06:33:37.144Z,11.00
2023-01-25T06:36:06.172Z,15.30
2023-01-25T06:38:33.973Z,9.90
2023-01-25T06:41:02.196Z,11.30
2023-01-25T06:43:30.728Z,8.10
2023-01-25T06:46:02.051Z,11.40
2023-01-25T06:48:30.750Z,13.20
2023-01-25T06:50:59.622Z,8.40
2023-01-25T06:53:27.904Z,8.50
2023-01-25T06:55:59.459Z,12.30
2023-01-25T06:58:27.418Z,12.40
2023-01-25T07:00:59.325Z,11.80
2023-01-25T07:03:27.458Z,10.80
2023-01-25T07:05:59.744Z,10.60
2023-01-25T07:08:27.913Z,14.60
2023-01-25T07:11:00.520Z,14.10
2023-01-25T07:13:29.027Z,14.50
2023-01-25T07:15:57.497Z,12.20
2023-01-25T07:18:26.769Z,14.60
2023-01-25T07:20:54.637Z,14.70
2023-01-25T07:23:22.849Z,11.90
2023-01-25T07:25:50.825Z,12.40
2023-01-25T07:28:18.659Z,16.00
2023-01-25T07:30:46.632Z,12.30
2023-01-25T07:33:14.449Z,11.60
2023-01-25T07:35:42.918Z,11.40
2023-01-25T07:38:11.185Z,11.10
2023-01-25T07:40:39.866Z,11.90
2023-01-25T07:43:07.870Z,13.60
2023-01-25T07:45:37.771Z,12.90
2023-01-25T07:48:08.762Z,11.70
2023-01-25T07:50:36.561Z,14.90
2023-01-25T07:53:04.657Z,17.00
2023-01-25T07:55:32.901Z,13.00
2023-01-25T07:58:00.756Z,15.60
2023-01-25T08:00:28.590Z,16.50
2023-01-25T08:02:56.561Z,17.30
2023-01-25T08:05:25.563Z,15.60
2023-01-25T08:07:53.542Z,15.80
2023-01-25T08:10:21.410Z,11.90
2023-01-25T08:12:49.507Z,11.70
2023-01-25T08:15:17.340Z,12.20
2023-01-25T08:17:45.408Z,10.80
2023-01-25T08:20:14.120Z,17.30
2023-01-25T08:22:42.161Z,11.80
2023-01-25T08:25:10.835Z,13.40
2023-01-25T08:27:39.481Z,12.20
2023-01-25T08:30:07.814Z,12.30
2023-01-25T08:32:37.309Z,21.10
2023-01-25T08:35:06.459Z,13.20
2023-01-25T08:37:34.497Z,13.50
2023-01-25T08:40:02.609Z,15.00
2023-01-25T08:42:30.903Z,14.90
2023-01-25T08:44:58.873Z,14.80
2023-01-25T08:47:27.065Z,12.40
2023-01-25T08:49:55.423Z,14.60
2023-01-25T08:52:24.132Z,11.30
2023-01-25T08:54:52.134Z,11.50
2023-01-25T08:57:20.383Z,15.70
2023-01-25T08:59:48.253Z,12.50
2023-01-25T09:02:16.117Z,15.30
2023-01-25T09:04:43.939Z,12.90
2023-01-25T09:07:11.701Z,11.50
2023-01-25T09:09:39.592Z,15.20
2023-01-25T09:12:08.809Z,15.80
2023-01-25T09:14:39.059Z,18.50
2023-01-25T09:17:09.491Z,14.40
2023-01-25T09:19:37.619Z,13.60
2023-01-25T09:22:05.430Z,15.50
2023-01-25T09:24:37.428Z,14.10
2023-01-25T09:27:05.981Z,15.10
2023-01-25T09:29:33.827Z,13.10
2023-01-25T09:32:01.713Z,11.90
2023-01-25T09:34:33.935Z,17.00
2023-01-25T09:37:01.922Z,10.60
2023-01-25T09:39:29.791Z,10.70
2023-01-25T09:42:15.383Z,14.70
2023-01-25T09:45:00.257Z,16.70
2023-01-25T09:47:34.807Z,17.00
2023-01-25T09:50:22.412Z,14.00
2023-01-25T09:52:59.654Z,16.00
2023-01-25T09:55:28.003Z,18.80
2023-01-25T09:57:56.918Z,19.80
2023-01-25T10:00:27.094Z,15.70
2023-01-25T10:05:20.721Z,17.10
2023-01-25T10:07:57.568Z,16.80
2023-01-25T10:10:33.829Z,20.00
2023-01-25T10:13:03.160Z,19.60
2023-01-25T10:15:35.500Z,19.50
2023-01-25T10:18:03.600Z,11.60
2023-01-25T10:20:37.315Z,17.30
2023-01-25T10:23:14.588Z,15.40
2023-01-25T10:25:44.770Z,13.10
2023-01-25T10:28:18.820Z,15.30
2023-01-25T10:30:59.069Z,12.80
2023-01-25T10:33:27.677Z,14.20
2023-01-25T10:35:55.593Z,16.50
2023-01-25T10:38:29.446Z,14.40
2023-01-25T10:41:00.325Z,13.90
2023-01-25T10:43:28.466Z,13.20
2023-01-25T10:45:56.937Z,16.20
2023-01-25T10:48:30.084Z,15.70
2023-01-25T10:50:58.062Z,15.80
2023-01-25T10:53:33.095Z,20.40
2023-01-25T10:56:06.279Z,14.90
2023-01-25T10:58:37.387Z,19.00
2023-01-25T11:01:07.143Z,17.60
2023-01-25T11:03:37.647Z,17.50
2023-01-25T11:06:06.467Z,12.40
2023-01-25T11:08:35.830Z,15.20
2023-01-25T11:11:14.446Z,15.50
2023-01-25T11:13:42.733Z,14.90
2023-01-25T11:16:20.483Z,13.30
2023-01-25T11:18:52.702Z,11.70
2023-01-25T11:21:23.372Z,11.90
2023-01-25T11:24:04.798Z,17.10
2023-01-25T11:26:33.460Z,21.80
2023-01-25T11:29:14.091Z,14.90
2023-01-25T11:31:45.502Z,17.40
2023-01-25T11:34:14.285Z,13.50
2023-01-25T11:36:49.779Z,12.80
2023-01-25T11:39:23.767Z,15.50
2023-01-25T11:41:51.529Z,14.10
2023-01-25T11:44:38.116Z,13.60
2023-01-25T11:47:05.881Z,15.30
2023-01-25T11:49:36.817Z,10.70
2023-01-25T11:52:09.512Z,14.90
2023-01-25T11:54:43.535Z,15.30
2023-01-25T11:57:14.342Z,15.30
2023-01-25T12:00:11.679Z,13.20
2023-01-25T12:03:00.517Z,16.00
2023-01-25T12:05:43.861Z,16.30
2023-01-25T12:08:16.295Z,13.50
2023-01-25T12:10:47.101Z,14.70
2023-01-25T12:13:15.043Z,17.00
2023-01-25T12:15:46.310Z,15.00
2023-01-25T12:18:18.373Z,16.90
2023-01-25T12:20:49.008Z,14.60
2023-01-25T12:23:36.340Z,14.90
2023-01-25T12:26:11.637Z,12.30
2023-01-25T12:28:42.469Z,7.50
2023-01-25T12:31:17.294Z,12.10
2023-01-25T12:33:57.420Z,12.60
2023-01-25T12:36:32.331Z,11.30
2023-01-25T12:39:00.662Z,10.50
2023-01-25T12:41:33.915Z,12.30
2023-01-25T12:44:08.969Z,15.40
2023-01-25T12:46:41.894Z,15.90
2023-01-25T12:49:20.143Z,14.80
2023-01-25T12:51:47.900Z,13.00
2023-01-25T12:54:17.661Z,14.90
2023-01-25T12:57:04.552Z,12.90
2023-01-25T12:59:35.546Z,13.10
2023-01-25T13:02:22.226Z,13.60
2023-01-25T13:04:54.417Z,15.60
2023-01-25T13:07:28.473Z,10.50
2023-01-25T13:10:15.006Z,12.50
2023-01-25T13:12:55.822Z,12.40
2023-01-25T13:15:37.626Z,10.20
2023-01-25T13:18:26.046Z,10.90
2023-01-25T13:21:08.446Z,13.60
2023-01-25T13:23:50.652Z,13.30
2023-01-25T13:26:21.670Z,12.80
2023-01-25T13:28:50.076Z,15.50
2023-01-25T14:35:43.081Z,13.10
2023-01-25T14:38:50.697Z,15.10
2023-01-25T14:41:33.609Z,11.80
2023-01-25T14:44:03.092Z,12.50
2023-01-25T14:46:34.728Z,20.60
2023-01-25T14:49:08.766Z,14.80
2023-01-25T14:51:41.953Z,13.30
2023-01-25T14:54:16.184Z,13.70
2023-01-25T14:56:52.132Z,15.80
2023-01-25T14:59:30.429Z,17.30
2023-01-25T15:02:01.346Z,13.40
2023-01-25T15:04:29.735Z,13.50
2023-01-25T15:07:01.168Z,16.40
2023-01-25T15:09:39.674Z,11.20
2023-01-25T15:12:17.116Z,18.00
2023-01-25T15:14:49.473Z,14.20
2023-01-25T15:17:40.573Z,12.80
2023-01-25T15:20:30.844Z,15.10
2023-01-25T15:23:20.374Z,14.60
2023-01-25T15:25:53.481Z,13.80
2023-01-25T15:28:22.339Z,15.50
2023-01-25T15:30:50.867Z,18.50
2023-01-25T15:33:23.400Z,13.80
2023-01-25T15:35:51.781Z,15.00
2023-01-25T15:38:20.163Z,18.90
2023-01-25T15:40:52.952Z,16.80
2023-01-25T15:43:20.961Z,22.40
2023-01-25T15:45:49.899Z,14.20
2023-01-25T15:48:27.606Z,18.90
2023-01-25T15:50:56.539Z,17.90
2023-01-25T15:53:24.574Z,17.00
2023-01-25T15:55:55.536Z,17.70
2023-01-25T15:58:26.104Z,15.00
2023-01-25T16:00:53.986Z,14.10
2023-01-25T16:03:22.967Z,19.20
2023-01-25T16:06:01.576Z,20.30
2023-01-25T16:08:30.003Z,18.90
2023-01-25T16:10:58.652Z,17.60
2023-01-25T16:13:26.812Z,14.90
2023-01-25T16:15:55.424Z,19.30
2023-01-25T16:18:23.495Z,18.60
2023-01-25T16:20:51.481Z,23.40
2023-01-25T16:23:19.595Z,19.60
2023-01-25T16:25:47.822Z,23.60
2023-01-25T16:28:16.065Z,21.50
2023-01-25T16:30:47.071Z,24.10
2023-01-25T16:33:15.218Z,20.00
2023-01-25T16:35:43.094Z,21.00
2023-01-25T16:38:11.954Z,18.30
2023-01-25T16:40:40.129Z,17.40
2023-01-25T16:43:08.048Z,18.60
2023-01-25T16:45:36.102Z,15.80
2023-01-25T16:48:04.211Z,16.70
2023-01-25T16:50:32.083Z,18.50
2023-01-25T16:53:00.167Z,15.80
2023-01-25T16:55:28.336Z,17.10
2023-01-25T16:57:56.357Z,20.00
2023-01-25T17:00:25.585Z,21.10
2023-01-25T17:02:59.049Z,20.30
2023-01-25T17:05:32.879Z,23.00
2023-01-25T17:08:00.784Z,19.40
2023-01-25T17:10:29.869Z,20.30
2023-01-25T17:12:58.001Z,20.30
2023-01-25T17:15:27.249Z,21.90
2023-01-25T17:17:55.367Z,22.80
2023-01-25T17:20:23.764Z,22.90
2023-01-25T17:22:51.931Z,26.90
2023-01-25T17:25:19.824Z,22.00
2023-01-25T17:27:48.187Z,17.90
2023-01-25T17:30:18.459Z,21.60
2023-01-25T17:32:46.513Z,22.90
2023-01-25T17:35:18.164Z,20.70
2023-01-25T17:37:46.134Z,20.10
2023-01-25T17:40:14.207Z,23.40
2023-01-25T17:42:42.186Z,20.00
2023-01-25T17:45:10.841Z,22.40
2023-01-25T17:47:39.576Z,20.70
2023-01-25T17:50:08.780Z,21.50
2023-01-25T17:52:37.165Z,24.00
2023-01-25T17:55:06.050Z,23.50
2023-01-25T17:57:35.567Z,21.50
2023-01-25T18:00:06.178Z,25.30
2023-01-25T18:40:18.812Z,21.00
2023-01-25T18:42:50.699Z,20.10
2023-01-25T18:45:18.780Z,20.50
2023-01-25T18:47:47.020Z,24.20
2023-01-25T18:50:16.439Z,16.20
2023-01-25T18:52:44.805Z,19.80
2023-01-25T18:55:13.084Z,22.40
2023-01-25T18:57:44.231Z,23.90
2023-01-25T19:00:14.915Z,21.80
2023-01-25T19:02:43.135Z,28.60
2023-01-25T19:05:11.431Z,26.60
2023-01-25T19:07:40.046Z,25.80
2023-01-25T19:10:09.773Z,23.20
2023-01-25T19:12:38.044Z,22.80
2023-01-25T19:15:08.241Z,26.00
2023-01-25T19:17:36.622Z,26.80
2023-01-25T19:20:05.396Z,24.20
2023-01-25T19:22:33.650Z,24.40
2023-01-25T19:25:06.050Z,22.10
2023-01-25T19:27:34.302Z,19.50
2023-01-25T19:30:02.222Z,21.90
2023-01-25T19:32:33.752Z,24.70
2023-01-25T19:35:01.569Z,29.20
2023-01-25T19:37:29.765Z,18.50
2023-01-25T19:39:57.698Z,20.20
2023-01-25T19:42:25.537Z,19.30
2023-01-25T19:44:53.502Z,27.00
2023-01-25T19:47:21.399Z,20.40
2023-01-25T19:49:49.281Z,22.10
2023-01-25T19:52:17.176Z,23.20
2023-01-25T19:54:45.168Z,24.10
2023-01-25T19:57:13.105Z,21.30
2023-01-25T19:59:41.216Z,25.40
2023-01-25T20:02:11.528Z,20.80
2023-01-25T20:04:41.300Z,22.00
2023-01-25T20:07:09.315Z,20.20
2023-01-25T20:09:37.344Z,28.40
2023-01-25T20:12:07.998Z,18.10
2023-01-25T20:14:37.620Z,18.50
2023-01-25T20:17:07.031Z,18.30
2023-01-25T20:19:37.109Z,18.70
2023-01-25T20:22:04.962Z,19.70
2023-01-25T20:24:32.834Z,23.20
2023-01-25T20:27:04.047Z,20.60
2023-01-25T20:29:32.221Z,21.00
2023-01-25T20:32:03.306Z,24.50
2023-01-25T20:34:32.579Z,20.10
2023-01-25T20:37:00.666Z,22.80
2023-01-25T20:39:33.067Z,21.40
2023-01-25T20:42:01.268Z,21.20
2023-01-25T20:44:30.002Z,24.30
2023-01-25T20:46:59.731Z,22.50
2023-01-25T20:49:27.982Z,27.50
2023-01-25T20:51:56.155Z,23.20
2023-01-25T20:54:24.360Z,23.20
2023-01-25T20:56:52.591Z,21.30
2023-01-25T20:59:20.785Z,22.20
2023-01-25T21:01:50.520Z,21.50
2023-01-25T21:04:19.331Z,25.40
2023-01-25T21:06:47.804Z,22.40
2023-01-25T21:09:16.285Z,25.40
2023-01-25T21:11:44.989Z,27.70
2023-01-25T21:14:13.632Z,29.40
2023-01-25T21:16:44.928Z,26.00
2023-01-25T21:19:15.400Z,26.20
2023-01-25T21:21:44.178Z,26.90
2023-01-25T21:24:14.617Z,20.40
2023-01-25T21:26:42.719Z,20.40
2023-01-25T21:29:10.645Z,19.10
2023-01-25T21:31:42.993Z,19.50
2023-01-25T21:34:12.216Z,18.70
2023-01-25T21:36:42.404Z,21.10
2023-01-25T21:39:13.917Z,17.70
2023-01-25T21:41:44.417Z,20.40
2023-01-25T21:44:36.061Z,21.00
2023-01-25T21:50:11.439Z,16.70
2023-01-25T21:52:42.771Z,17.10
2023-01-25T21:55:11.704Z,20.60
2023-01-25T21:57:46.354Z,20.90
2023-01-25T22:00:16.615Z,19.70
2023-01-25T22:02:51.993Z,20.50
2023-01-25T22:05:22.727Z,18.10
2023-01-25T22:07:54.483Z,21.50
2023-01-25T22:10:24.651Z,22.00
2023-01-25T22:12:54.739Z,16.40
2023-01-25T22:15:24.381Z,20.00
2023-01-25T22:17:54.708Z,20.60
2023-01-25T22:20:24.135Z,20.20
2023-01-25T22:22:53.172Z,21.20
2023-01-25T22:25:24.321Z,18.90
2023-01-25T22:27:56.804Z,18.00
2023-01-25T22:31:48.111Z,14.20
2023-01-25T22:34:17.786Z,25.70
2023-01-25T22:36:46.333Z,40.40
2023-01-25T22:39:14.927Z,53.70
2023-01-25T22:41:43.128Z,50.50
2023-01-25T22:44:11.937Z,44.00
2023-01-25T22:46:43.954Z,23.10
2023-01-25T22:49:11.970Z,36.20
2023-01-25T22:51:40.086Z,22.30
2023-01-25T22:54:09.620Z,30.20
2023-01-25T22:56:38.367Z,24.40
2023-01-25T22:59:08.029Z,16.50
2023-01-25T23:01:36.002Z,19.00
2023-01-25T23:04:03.952Z,18.00
2023-01-25T23:06:34.385Z,13.00
2023-01-25T23:09:04.833Z,17.30
2023-01-25T23:11:37.850Z,13.60
2023-01-25T23:14:28.028Z,14.10
2023-01-25T23:17:16.583Z,18.00
2023-01-25T23:19:44.712Z,16.00
2023-01-25T23:22:12.748Z,16.70
2023-01-25T23:24:40.705Z,22.00
2023-01-25T23:27:08.659Z,21.00
2023-01-25T23:29:37.284Z,22.70
2023-01-25T23:32:05.852Z,21.10
2023-01-25T23:34:37.113Z,19.10
2023-01-25T23:37:05.284Z,17.70
2023-01-25T23:39:34.377Z,17.30
2023-01-25T23:42:02.699Z,15.70
2023-01-25T23:44:31.259Z,19.60
2023-01-25T23:46:59.577Z,22.20
2023-01-25T23:49:27.674Z,20.50
2023-01-25T23:51:55.553Z,23.50
2023-01-25T23:54:25.804Z,30.90
2023-01-25T23:56:53.948Z,23.80
2023-01-25T23:59:21.777Z,27.80
